sensor_id;sensor_type;location;lat;lon;timestamp;P1;durP1;ratioP1;P2;durP2;ratioP2
11006;SDS011;8186;57.652;11.968;2023-03-01T00:00:53;5.93;;;2.23;;
11006;SDS011;8186;57.652;11.968;2023-03-01T00:03:21;6.03;;;2.40;;
11006;SDS011;8186;57.652;11.968;2023-03-01T00:05:47;3.80;;;2.53;;
11006;SDS011;8186;57.652;11.968;2023-03-01T00:08:14;3.00;;;2.07;;
11006;SDS011;8186;57.652;11.968;2023-03-01T00:10:41;3.77;;;2.50;;
11006;SDS011;8186;57.652;11.968;2023-03-01T00:13:08;4.30;;;2.33;;
11006;SDS011;8186;57.652;11.968;2023-03-01T00:15:37;4.20;;;2.23;;
11006;SDS011;8186;57.652;11.968;2023-03-01T00:18:06;3.93;;;2.30;;
11006;SDS011;8186;57.652;11.968;2023-03-01T00:20:33;5.00;;;2.80;;
11006;SDS011;8186;57.652;11.968;2023-03-01T00:23:00;3.83;;;2.20;;
11006;SDS011;8186;57.652;11.968;2023-03-01T00:25:28;3.30;;;2.70;;
11006;SDS011;8186;57.652;11.968;2023-03-01T00:27:54;2.70;;;2.20;;
11006;SDS011;8186;57.652;11.968;2023-03-01T00:30:21;2.50;;;2.03;;
11006;SDS011;8186;57.652;11.968;2023-03-01T00:32:48;3.17;;;2.03;;
11006;SDS011;8186;57.652;11.968;2023-03-01T00:35:16;2.00;;;1.80;;
11006;SDS011;8186;57.652;11.968;2023-03-01T00:37:43;3.50;;;2.10;;
11006;SDS011;8186;57.652;11.968;2023-03-01T00:40:11;2.50;;;1.90;;
11006;SDS011;8186;57.652;11.968;2023-03-01T00:42:41;2.20;;;1.63;;
11006;SDS011;8186;57.652;11.968;2023-03-01T00:45:08;3.97;;;2.00;;
11006;SDS011;8186;57.652;11.968;2023-03-01T00:47:35;2.33;;;1.87;;
11006;SDS011;8186;57.652;11.968;2023-03-01T00:50:02;2.20;;;1.80;;
11006;SDS011;8186;57.652;11.968;2023-03-01T00:52:31;2.73;;;1.73;;
11006;SDS011;8186;57.652;11.968;2023-03-01T00:54:58;2.17;;;1.70;;
11006;SDS011;8186;57.652;11.968;2023-03-01T00:57:25;4.83;;;2.30;;
11006;SDS011;8186;57.652;11.968;2023-03-01T00:59:52;2.07;;;1.73;;
11006;SDS011;8186;57.652;11.968;2023-03-01T01:02:19;2.70;;;2.20;;
11006;SDS011;8186;57.652;11.968;2023-03-01T01:04:46;2.17;;;1.93;;
11006;SDS011;8186;57.652;11.968;2023-03-01T01:07:13;3.67;;;1.90;;
11006;SDS011;8186;57.652;11.968;2023-03-01T01:09:42;3.20;;;1.77;;
11006;SDS011;8186;57.652;11.968;2023-03-01T01:12:09;2.53;;;2.00;;
11006;SDS011;8186;57.652;11.968;2023-03-01T01:14:36;3.53;;;2.23;;
11006;SDS011;8186;57.652;11.968;2023-03-01T01:17:03;2.57;;;2.20;;
11006;SDS011;8186;57.652;11.968;2023-03-01T01:19:30;3.67;;;2.37;;
11006;SDS011;8186;57.652;11.968;2023-03-01T01:21:57;4.17;;;2.80;;
11006;SDS011;8186;57.652;11.968;2023-03-01T01:24:24;2.93;;;2.40;;
11006;SDS011;8186;57.652;11.968;2023-03-01T01:26:52;2.93;;;2.50;;
11006;SDS011;8186;57.652;11.968;2023-03-01T01:29:19;3.90;;;2.27;;
11006;SDS011;8186;57.652;11.968;2023-03-01T01:31:46;2.90;;;2.33;;
11006;SDS011;8186;57.652;11.968;2023-03-01T01:34:14;2.97;;;2.40;;
11006;SDS011;8186;57.652;11.968;2023-03-01T01:36:41;2.53;;;2.07;;
11006;SDS011;8186;57.652;11.968;2023-03-01T01:39:09;3.00;;;2.50;;
11006;SDS011;8186;57.652;11.968;2023-03-01T01:41:38;2.37;;;2.10;;
11006;SDS011;8186;57.652;11.968;2023-03-01T01:44:17;3.47;;;2.50;;
11006;SDS011;8186;57.652;11.968;2023-03-01T01:46:46;2.70;;;2.30;;
11006;SDS011;8186;57.652;11.968;2023-03-01T01:49:20;3.37;;;2.53;;
11006;SDS011;8186;57.652;11.968;2023-03-01T01:51:51;2.73;;;2.33;;
11006;SDS011;8186;57.652;11.968;2023-03-01T01:54:23;3.43;;;2.10;;
11006;SDS011;8186;57.652;11.968;2023-03-01T01:56:54;4.90;;;2.73;;
11006;SDS011;8186;57.652;11.968;2023-03-01T01:59:24;4.03;;;2.40;;
11006;SDS011;8186;57.652;11.968;2023-03-01T02:01:51;3.27;;;2.70;;
11006;SDS011;8186;57.652;11.968;2023-03-01T02:04:19;3.90;;;2.80;;
11006;SDS011;8186;57.652;11.968;2023-03-01T02:06:48;4.63;;;2.90;;
11006;SDS011;8186;57.652;11.968;2023-03-01T02:09:16;3.43;;;2.63;;
11006;SDS011;8186;57.652;11.968;2023-03-01T02:11:45;3.13;;;2.40;;
11006;SDS011;8186;57.652;11.968;2023-03-01T02:14:14;4.00;;;2.60;;
11006;SDS011;8186;57.652;11.968;2023-03-01T02:16:42;4.40;;;2.07;;
11006;SDS011;8186;57.652;11.968;2023-03-01T02:19:09;9.00;;;2.50;;
11006;SDS011;8186;57.652;11.968;2023-03-01T02:21:45;6.97;;;2.73;;
11006;SDS011;8186;57.652;11.968;2023-03-01T02:24:18;3.97;;;2.40;;
11006;SDS011;8186;57.652;11.968;2023-03-01T02:26:52;4.37;;;2.50;;
11006;SDS011;8186;57.652;11.968;2023-03-01T02:29:22;3.67;;;3.30;;
11006;SDS011;8186;57.652;11.968;2023-03-01T02:31:50;11.90;;;2.80;;
11006;SDS011;8186;57.652;11.968;2023-03-01T02:34:19;4.20;;;2.37;;
11006;SDS011;8186;57.652;11.968;2023-03-01T02:36:48;5.20;;;2.80;;
11006;SDS011;8186;57.652;11.968;2023-03-01T02:39:17;3.70;;;2.77;;
11006;SDS011;8186;57.652;11.968;2023-03-01T02:41:48;8.03;;;3.07;;
11006;SDS011;8186;57.652;11.968;2023-03-01T02:44:16;3.37;;;2.67;;
11006;SDS011;8186;57.652;11.968;2023-03-01T02:46:45;3.60;;;2.50;;
11006;SDS011;8186;57.652;11.968;2023-03-01T02:49:21;4.60;;;2.50;;
11006;SDS011;8186;57.652;11.968;2023-03-01T02:51:55;4.83;;;2.73;;
11006;SDS011;8186;57.652;11.968;2023-03-01T02:54:36;3.73;;;2.37;;
11006;SDS011;8186;57.652;11.968;2023-03-01T02:57:06;3.20;;;2.90;;
11006;SDS011;8186;57.652;11.968;2023-03-01T02:59:35;5.37;;;2.67;;
11006;SDS011;8186;57.652;11.968;2023-03-01T03:02:05;3.03;;;2.33;;
11006;SDS011;8186;57.652;11.968;2023-03-01T03:04:33;3.60;;;2.77;;
11006;SDS011;8186;57.652;11.968;2023-03-01T03:06:59;4.40;;;2.50;;
11006;SDS011;8186;57.652;11.968;2023-03-01T03:09:26;5.43;;;2.53;;
11006;SDS011;8186;57.652;11.968;2023-03-01T03:11:53;5.30;;;2.73;;
11006;SDS011;8186;57.652;11.968;2023-03-01T03:14:20;5.10;;;2.53;;
11006;SDS011;8186;57.652;11.968;2023-03-01T03:16:48;4.00;;;2.13;;
11006;SDS011;8186;57.652;11.968;2023-03-01T03:19:17;6.87;;;2.50;;
11006;SDS011;8186;57.652;11.968;2023-03-01T03:21:45;3.20;;;2.50;;
11006;SDS011;8186;57.652;11.968;2023-03-01T03:24:12;5.53;;;2.57;;
11006;SDS011;8186;57.652;11.968;2023-03-01T03:26:39;4.53;;;2.67;;
11006;SDS011;8186;57.652;11.968;2023-03-01T03:29:06;5.13;;;2.40;;
11006;SDS011;8186;57.652;11.968;2023-03-01T03:31:33;4.00;;;2.60;;
11006;SDS011;8186;57.652;11.968;2023-03-01T03:34:00;4.97;;;2.33;;
11006;SDS011;8186;57.652;11.968;2023-03-01T03:36:28;2.93;;;2.30;;
11006;SDS011;8186;57.652;11.968;2023-03-01T03:38:55;3.27;;;2.30;;
11006;SDS011;8186;57.652;11.968;2023-03-01T03:41:22;5.63;;;2.97;;
11006;SDS011;8186;57.652;11.968;2023-03-01T03:43:49;3.23;;;2.57;;
11006;SDS011;8186;57.652;11.968;2023-03-01T03:46:16;6.63;;;2.93;;
11006;SDS011;8186;57.652;11.968;2023-03-01T03:48:43;4.27;;;2.80;;
11006;SDS011;8186;57.652;11.968;2023-03-01T03:51:11;5.37;;;3.03;;
11006;SDS011;8186;57.652;11.968;2023-03-01T03:53:40;3.43;;;2.60;;
11006;SDS011;8186;57.652;11.968;2023-03-01T03:56:07;3.93;;;2.67;;
11006;SDS011;8186;57.652;11.968;2023-03-01T03:58:35;5.27;;;2.80;;
11006;SDS011;8186;57.652;11.968;2023-03-01T04:01:02;4.17;;;2.40;;
11006;SDS011;8186;57.652;11.968;2023-03-01T04:03:29;4.70;;;2.70;;
11006;SDS011;8186;57.652;11.968;2023-03-01T04:05:57;3.50;;;2.20;;
11006;SDS011;8186;57.652;11.968;2023-03-01T04:08:25;3.50;;;2.10;;
11006;SDS011;8186;57.652;11.968;2023-03-01T04:10:58;3.50;;;2.20;;
11006;SDS011;8186;57.652;11.968;2023-03-01T04:13:46;5.00;;;2.33;;
11006;SDS011;8186;57.652;11.968;2023-03-01T04:16:13;3.90;;;2.40;;
11006;SDS011;8186;57.652;11.968;2023-03-01T04:18:40;2.60;;;2.37;;
11006;SDS011;8186;57.652;11.968;2023-03-01T04:21:07;2.47;;;2.17;;
11006;SDS011;8186;57.652;11.968;2023-03-01T04:23:35;2.90;;;2.00;;
11006;SDS011;8186;57.652;11.968;2023-03-01T04:26:03;2.37;;;2.03;;
11006;SDS011;8186;57.652;11.968;2023-03-01T04:28:31;5.43;;;2.10;;
11006;SDS011;8186;57.652;11.968;2023-03-01T04:31:02;4.47;;;2.40;;
11006;SDS011;8186;57.652;11.968;2023-03-01T04:33:38;3.77;;;2.20;;
11006;SDS011;8186;57.652;11.968;2023-03-01T04:36:07;3.77;;;2.63;;
11006;SDS011;8186;57.652;11.968;2023-03-01T04:38:35;3.43;;;2.47;;
11006;SDS011;8186;57.652;11.968;2023-03-01T04:41:05;2.77;;;2.20;;
11006;SDS011;8186;57.652;11.968;2023-03-01T04:43:32;2.83;;;2.30;;
11006;SDS011;8186;57.652;11.968;2023-03-01T04:46:00;2.63;;;2.20;;
11006;SDS011;8186;57.652;11.968;2023-03-01T04:48:29;3.60;;;2.70;;
11006;SDS011;8186;57.652;11.968;2023-03-01T04:50:56;3.50;;;2.30;;
11006;SDS011;8186;57.652;11.968;2023-03-01T04:53:24;3.37;;;2.50;;
11006;SDS011;8186;57.652;11.968;2023-03-01T04:55:51;3.67;;;2.60;;
11006;SDS011;8186;57.652;11.968;2023-03-01T04:58:19;3.97;;;2.90;;
11006;SDS011;8186;57.652;11.968;2023-03-01T05:00:46;4.33;;;2.90;;
11006;SDS011;8186;57.652;11.968;2023-03-01T05:03:13;3.40;;;2.40;;
11006;SDS011;8186;57.652;11.968;2023-03-01T05:05:44;5.13;;;2.40;;
11006;SDS011;8186;57.652;11.968;2023-03-01T05:08:12;6.23;;;2.77;;
11006;SDS011;8186;57.652;11.968;2023-03-01T05:10:43;3.63;;;1.97;;
11006;SDS011;8186;57.652;11.968;2023-03-01T05:13:11;4.17;;;2.60;;
11006;SDS011;8186;57.652;11.968;2023-03-01T05:15:41;3.27;;;2.53;;
11006;SDS011;8186;57.652;11.968;2023-03-01T05:18:08;3.07;;;2.40;;
11006;SDS011;8186;57.652;11.968;2023-03-01T05:20:36;4.23;;;2.40;;
11006;SDS011;8186;57.652;11.968;2023-03-01T05:23:04;3.50;;;2.30;;
11006;SDS011;8186;57.652;11.968;2023-03-01T05:25:31;2.87;;;2.27;;
11006;SDS011;8186;57.652;11.968;2023-03-01T05:27:59;3.67;;;2.13;;
11006;SDS011;8186;57.652;11.968;2023-03-01T05:30:29;2.90;;;2.03;;
11006;SDS011;8186;57.652;11.968;2023-03-01T05:32:59;6.33;;;2.70;;
11006;SDS011;8186;57.652;11.968;2023-03-01T05:35:26;3.73;;;2.17;;
11006;SDS011;8186;57.652;11.968;2023-03-01T05:37:54;3.20;;;2.20;;
11006;SDS011;8186;57.652;11.968;2023-03-01T05:40:22;3.57;;;2.20;;
11006;SDS011;8186;57.652;11.968;2023-03-01T05:42:50;4.37;;;2.60;;
11006;SDS011;8186;57.652;11.968;2023-03-01T05:45:19;2.83;;;2.47;;
11006;SDS011;8186;57.652;11.968;2023-03-01T05:47:47;4.27;;;2.70;;
11006;SDS011;8186;57.652;11.968;2023-03-01T05:50:17;3.73;;;2.30;;
11006;SDS011;8186;57.652;11.968;2023-03-01T05:52:46;3.13;;;2.23;;
11006;SDS011;8186;57.652;11.968;2023-03-01T05:55:13;3.20;;;2.43;;
11006;SDS011;8186;57.652;11.968;2023-03-01T05:57:40;2.50;;;2.10;;
11006;SDS011;8186;57.652;11.968;2023-03-01T06:00:08;3.73;;;2.30;;
11006;SDS011;8186;57.652;11.968;2023-03-01T06:02:37;3.13;;;2.20;;
11006;SDS011;8186;57.652;11.968;2023-03-01T06:05:04;3.90;;;2.33;;
11006;SDS011;8186;57.652;11.968;2023-03-01T06:07:33;4.13;;;2.50;;
11006;SDS011;8186;57.652;11.968;2023-03-01T06:10:00;3.93;;;2.40;;
11006;SDS011;8186;57.652;11.968;2023-03-01T06:12:29;3.77;;;2.70;;
11006;SDS011;8186;57.652;11.968;2023-03-01T06:14:56;4.73;;;2.47;;
11006;SDS011;8186;57.652;11.968;2023-03-01T06:17:23;3.23;;;2.43;;
11006;SDS011;8186;57.652;11.968;2023-03-01T06:19:50;4.10;;;2.50;;
11006;SDS011;8186;57.652;11.968;2023-03-01T06:22:17;4.90;;;2.50;;
11006;SDS011;8186;57.652;11.968;2023-03-01T06:24:46;3.80;;;2.60;;
11006;SDS011;8186;57.652;11.968;2023-03-01T06:27:13;4.10;;;2.30;;
11006;SDS011;8186;57.652;11.968;2023-03-01T06:29:40;4.00;;;2.30;;
11006;SDS011;8186;57.652;11.968;2023-03-01T06:32:07;3.23;;;2.43;;
11006;SDS011;8186;57.652;11.968;2023-03-01T06:34:34;4.57;;;2.50;;
11006;SDS011;8186;57.652;11.968;2023-03-01T06:37:01;6.37;;;2.70;;
11006;SDS011;8186;57.652;11.968;2023-03-01T06:39:30;5.57;;;2.80;;
11006;SDS011;8186;57.652;11.968;2023-03-01T06:41:58;6.33;;;3.50;;
11006;SDS011;8186;57.652;11.968;2023-03-01T06:44:25;5.87;;;2.93;;
11006;SDS011;8186;57.652;11.968;2023-03-01T06:46:53;6.30;;;3.00;;
11006;SDS011;8186;57.652;11.968;2023-03-01T06:49:20;5.10;;;3.00;;
11006;SDS011;8186;57.652;11.968;2023-03-01T06:51:47;6.23;;;3.23;;
11006;SDS011;8186;57.652;11.968;2023-03-01T06:54:14;4.73;;;3.10;;
11006;SDS011;8186;57.652;11.968;2023-03-01T06:56:42;5.60;;;3.00;;
11006;SDS011;8186;57.652;11.968;2023-03-01T06:59:11;5.23;;;3.00;;
11006;SDS011;8186;57.652;11.968;2023-03-01T07:01:38;5.83;;;2.97;;
11006;SDS011;8186;57.652;11.968;2023-03-01T07:04:05;6.47;;;3.37;;
11006;SDS011;8186;57.652;11.968;2023-03-01T07:06:32;6.53;;;3.27;;
11006;SDS011;8186;57.652;11.968;2023-03-01T07:08:58;5.70;;;2.80;;
11006;SDS011;8186;57.652;11.968;2023-03-01T07:11:25;4.93;;;3.03;;
11006;SDS011;8186;57.652;11.968;2023-03-01T07:13:52;7.20;;;3.87;;
11006;SDS011;8186;57.652;11.968;2023-03-01T07:16:21;7.00;;;2.83;;
11006;SDS011;8186;57.652;11.968;2023-03-01T07:18:48;4.57;;;3.17;;
11006;SDS011;8186;57.652;11.968;2023-03-01T07:21:15;5.43;;;3.03;;
11006;SDS011;8186;57.652;11.968;2023-03-01T07:23:42;5.30;;;2.97;;
11006;SDS011;8186;57.652;11.968;2023-03-01T07:26:09;8.17;;;3.20;;
11006;SDS011;8186;57.652;11.968;2023-03-01T07:28:36;9.17;;;3.30;;
11006;SDS011;8186;57.652;11.968;2023-03-01T07:31:04;3.50;;;2.60;;
11006;SDS011;8186;57.652;11.968;2023-03-01T07:33:35;3.07;;;1.40;;
11006;SDS011;8186;57.652;11.968;2023-03-01T07:36:02;1.53;;;1.07;;
11006;SDS011;8186;57.652;11.968;2023-03-01T07:38:30;1.33;;;0.80;;
11006;SDS011;8186;57.652;11.968;2023-03-01T07:40:58;1.63;;;0.80;;
11006;SDS011;8186;57.652;11.968;2023-03-01T07:43:25;2.50;;;0.80;;
11006;SDS011;8186;57.652;11.968;2023-03-01T07:45:52;0.80;;;0.70;;
11006;SDS011;8186;57.652;11.968;2023-03-01T07:48:19;0.70;;;0.60;;
11006;SDS011;8186;57.652;11.968;2023-03-01T07:50:47;1.17;;;0.77;;
11006;SDS011;8186;57.652;11.968;2023-03-01T07:53:14;0.93;;;0.80;;
11006;SDS011;8186;57.652;11.968;2023-03-01T07:55:41;1.57;;;0.70;;
11006;SDS011;8186;57.652;11.968;2023-03-01T07:58:08;1.00;;;0.50;;
11006;SDS011;8186;57.652;11.968;2023-03-01T08:00:35;2.80;;;1.03;;
11006;SDS011;8186;57.652;11.968;2023-03-01T08:03:02;0.57;;;0.53;;
11006;SDS011;8186;57.652;11.968;2023-03-01T08:05:29;0.50;;;0.50;;
11006;SDS011;8186;57.652;11.968;2023-03-01T08:07:57;1.00;;;0.90;;
11006;SDS011;8186;57.652;11.968;2023-03-01T08:10:24;0.77;;;0.70;;
11006;SDS011;8186;57.652;11.968;2023-03-01T08:12:51;0.40;;;0.40;;
11006;SDS011;8186;57.652;11.968;2023-03-01T08:15:19;3.17;;;0.90;;
11006;SDS011;8186;57.652;11.968;2023-03-01T08:17:48;0.60;;;0.50;;
11006;SDS011;8186;57.652;11.968;2023-03-01T08:20:15;2.13;;;1.03;;
11006;SDS011;8186;57.652;11.968;2023-03-01T08:22:42;1.10;;;0.60;;
11006;SDS011;8186;57.652;11.968;2023-03-01T08:25:12;0.87;;;0.60;;
11006;SDS011;8186;57.652;11.968;2023-03-01T08:27:39;0.77;;;0.50;;
11006;SDS011;8186;57.652;11.968;2023-03-01T08:30:07;0.90;;;0.60;;
11006;SDS011;8186;57.652;11.968;2023-03-01T08:32:35;1.83;;;0.63;;
11006;SDS011;8186;57.652;11.968;2023-03-01T08:35:03;0.93;;;0.60;;
11006;SDS011;8186;57.652;11.968;2023-03-01T08:37:31;0.60;;;0.50;;
11006;SDS011;8186;57.652;11.968;2023-03-01T08:39:58;1.50;;;0.63;;
11006;SDS011;8186;57.652;11.968;2023-03-01T08:42:27;1.30;;;0.57;;
11006;SDS011;8186;57.652;11.968;2023-03-01T08:44:54;0.90;;;0.70;;
11006;SDS011;8186;57.652;11.968;2023-03-01T08:47:21;0.70;;;0.60;;
11006;SDS011;8186;57.652;11.968;2023-03-01T08:49:49;0.87;;;0.70;;
11006;SDS011;8186;57.652;11.968;2023-03-01T08:52:16;0.77;;;0.60;;
11006;SDS011;8186;57.652;11.968;2023-03-01T08:54:43;0.73;;;0.50;;
11006;SDS011;8186;57.652;11.968;2023-03-01T08:57:10;0.73;;;0.40;;
11006;SDS011;8186;57.652;11.968;2023-03-01T08:59:39;1.40;;;0.60;;
11006;SDS011;8186;57.652;11.968;2023-03-01T09:02:10;6.50;;;0.80;;
11006;SDS011;8186;57.652;11.968;2023-03-01T09:04:38;0.77;;;0.50;;
11006;SDS011;8186;57.652;11.968;2023-03-01T09:07:05;1.40;;;0.80;;
11006;SDS011;8186;57.652;11.968;2023-03-01T09:09:34;2.23;;;0.50;;
11006;SDS011;8186;57.652;11.968;2023-03-01T09:12:02;0.93;;;0.60;;
11006;SDS011;8186;57.652;11.968;2023-03-01T09:14:29;1.83;;;0.57;;
11006;SDS011;8186;57.652;11.968;2023-03-01T09:16:57;0.83;;;0.60;;
11006;SDS011;8186;57.652;11.968;2023-03-01T09:19:28;1.83;;;0.63;;
11006;SDS011;8186;57.652;11.968;2023-03-01T09:21:57;1.10;;;0.70;;
11006;SDS011;8186;57.652;11.968;2023-03-01T09:24:24;2.33;;;0.60;;
11006;SDS011;8186;57.652;11.968;2023-03-01T09:26:54;1.90;;;0.67;;
11006;SDS011;8186;57.652;11.968;2023-03-01T09:29:22;1.07;;;0.63;;
11006;SDS011;8186;57.652;11.968;2023-03-01T09:31:50;1.47;;;0.70;;
11006;SDS011;8186;57.652;11.968;2023-03-01T09:34:21;1.57;;;0.77;;
11006;SDS011;8186;57.652;11.968;2023-03-01T09:36:49;1.40;;;0.70;;
11006;SDS011;8186;57.652;11.968;2023-03-01T09:39:16;1.03;;;0.60;;
11006;SDS011;8186;57.652;11.968;2023-03-01T09:41:48;1.83;;;0.97;;
11006;SDS011;8186;57.652;11.968;2023-03-01T09:44:21;1.37;;;0.80;;
11006;SDS011;8186;57.652;11.968;2023-03-01T09:46:52;2.23;;;0.70;;
11006;SDS011;8186;57.652;11.968;2023-03-01T09:49:19;2.50;;;0.60;;
11006;SDS011;8186;57.652;11.968;2023-03-01T09:51:54;1.10;;;0.70;;
11006;SDS011;8186;57.652;11.968;2023-03-01T09:54:22;0.50;;;0.50;;
11006;SDS011;8186;57.652;11.968;2023-03-01T09:56:53;0.77;;;0.60;;
11006;SDS011;8186;57.652;11.968;2023-03-01T09:59:26;2.00;;;0.70;;
11006;SDS011;8186;57.652;11.968;2023-03-01T10:01:59;3.33;;;0.80;;
11006;SDS011;8186;57.652;11.968;2023-03-01T10:04:32;0.93;;;0.57;;
11006;SDS011;8186;57.652;11.968;2023-03-01T10:07:12;1.50;;;0.60;;
11006;SDS011;8186;57.652;11.968;2023-03-01T10:09:45;1.00;;;0.70;;
11006;SDS011;8186;57.652;11.968;2023-03-01T10:12:14;1.63;;;0.70;;
11006;SDS011;8186;57.652;11.968;2023-03-01T10:14:43;0.97;;;0.70;;
11006;SDS011;8186;57.652;11.968;2023-03-01T10:17:18;0.83;;;0.60;;
11006;SDS011;8186;57.652;11.968;2023-03-01T10:19:51;0.93;;;0.50;;
11006;SDS011;8186;57.652;11.968;2023-03-01T10:22:19;3.23;;;1.07;;
11006;SDS011;8186;57.652;11.968;2023-03-01T10:24:48;1.10;;;0.53;;
11006;SDS011;8186;57.652;11.968;2023-03-01T10:27:17;1.67;;;0.70;;
11006;SDS011;8186;57.652;11.968;2023-03-01T10:29:48;0.70;;;0.60;;
11006;SDS011;8186;57.652;11.968;2023-03-01T10:32:17;1.73;;;0.80;;
11006;SDS011;8186;57.652;11.968;2023-03-01T10:34:44;1.27;;;0.80;;
11006;SDS011;8186;57.652;11.968;2023-03-01T10:37:13;0.80;;;0.70;;
11006;SDS011;8186;57.652;11.968;2023-03-01T10:39:56;2.50;;;0.67;;
11006;SDS011;8186;57.652;11.968;2023-03-01T10:42:28;3.57;;;1.70;;
11006;SDS011;8186;57.652;11.968;2023-03-01T10:44:55;2.73;;;0.90;;
11006;SDS011;8186;57.652;11.968;2023-03-01T10:47:23;1.23;;;0.60;;
11006;SDS011;8186;57.652;11.968;2023-03-01T10:49:52;1.47;;;0.67;;
11006;SDS011;8186;57.652;11.968;2023-03-01T10:52:23;1.10;;;0.60;;
11006;SDS011;8186;57.652;11.968;2023-03-01T10:54:51;0.73;;;0.57;;
11006;SDS011;8186;57.652;11.968;2023-03-01T11:00:14;1.17;;;0.50;;
11006;SDS011;8186;57.652;11.968;2023-03-01T11:02:45;2.47;;;0.60;;
11006;SDS011;8186;57.652;11.968;2023-03-01T11:05:16;3.10;;;0.63;;
11006;SDS011;8186;57.652;11.968;2023-03-01T11:07:48;1.10;;;0.80;;
11006;SDS011;8186;57.652;11.968;2023-03-01T11:10:17;2.30;;;0.60;;
11006;SDS011;8186;57.652;11.968;2023-03-01T11:12:48;1.63;;;0.60;;
11006;SDS011;8186;57.652;11.968;2023-03-01T11:15:20;0.57;;;0.50;;
11006;SDS011;8186;57.652;11.968;2023-03-01T11:17:52;1.23;;;0.80;;
11006;SDS011;8186;57.652;11.968;2023-03-01T11:20:30;1.00;;;0.70;;
11006;SDS011;8186;57.652;11.968;2023-03-01T11:23:01;1.23;;;0.73;;
11006;SDS011;8186;57.652;11.968;2023-03-01T11:25:31;3.43;;;0.80;;
11006;SDS011;8186;57.652;11.968;2023-03-01T11:28:00;1.00;;;0.70;;
11006;SDS011;8186;57.652;11.968;2023-03-01T11:30:29;2.17;;;0.50;;
11006;SDS011;8186;57.652;11.968;2023-03-01T11:33:05;3.67;;;0.50;;
11006;SDS011;8186;57.652;11.968;2023-03-01T11:35:41;1.30;;;0.63;;
11006;SDS011;8186;57.652;11.968;2023-03-01T11:38:15;0.93;;;0.50;;
11006;SDS011;8186;57.652;11.968;2023-03-01T11:40:46;0.50;;;0.50;;
11006;SDS011;8186;57.652;11.968;2023-03-01T11:43:19;1.77;;;0.60;;
11006;SDS011;8186;57.652;11.968;2023-03-01T11:46:18;1.63;;;0.70;;
11006;SDS011;8186;57.652;11.968;2023-03-01T11:48:58;1.10;;;0.40;;
11006;SDS011;8186;57.652;11.968;2023-03-01T11:51:38;1.60;;;0.50;;
11006;SDS011;8186;57.652;11.968;2023-03-01T11:54:20;3.37;;;0.80;;
11006;SDS011;8186;57.652;11.968;2023-03-01T11:56:55;3.60;;;1.90;;
11006;SDS011;8186;57.652;11.968;2023-03-01T11:59:32;4.97;;;1.50;;
11006;SDS011;8186;57.652;11.968;2023-03-01T12:02:21;3.47;;;1.03;;
11006;SDS011;8186;57.652;11.968;2023-03-01T12:05:18;2.00;;;0.90;;
11006;SDS011;8186;57.652;11.968;2023-03-01T12:07:52;3.07;;;0.90;;
11006;SDS011;8186;57.652;11.968;2023-03-01T12:10:25;5.40;;;0.97;;
11006;SDS011;8186;57.652;11.968;2023-03-01T12:13:00;1.10;;;0.60;;
11006;SDS011;8186;57.652;11.968;2023-03-01T12:15:42;2.60;;;0.80;;
11006;SDS011;8186;57.652;11.968;2023-03-01T12:18:26;2.67;;;1.00;;
11006;SDS011;8186;57.652;11.968;2023-03-01T12:21:16;7.20;;;0.80;;
11006;SDS011;8186;57.652;11.968;2023-03-01T12:23:59;2.20;;;0.70;;
11006;SDS011;8186;57.652;11.968;2023-03-01T12:26:44;2.03;;;0.53;;
11006;SDS011;8186;57.652;11.968;2023-03-01T12:29:21;1.90;;;0.60;;
11006;SDS011;8186;57.652;11.968;2023-03-01T12:34:55;2.67;;;0.70;;
11006;SDS011;8186;57.652;11.968;2023-03-01T12:37:42;1.10;;;0.70;;
11006;SDS011;8186;57.652;11.968;2023-03-01T12:40:24;2.73;;;0.70;;
11006;SDS011;8186;57.652;11.968;2023-03-01T12:43:01;1.93;;;0.70;;
11006;SDS011;8186;57.652;11.968;2023-03-01T12:48:31;1.67;;;0.80;;
11006;SDS011;8186;57.652;11.968;2023-03-01T12:51:04;4.63;;;0.97;;
11006;SDS011;8186;57.652;11.968;2023-03-01T12:53:36;4.00;;;0.80;;
11006;SDS011;8186;57.652;11.968;2023-03-01T12:56:05;1.33;;;0.70;;
11006;SDS011;8186;57.652;11.968;2023-03-01T12:58:36;1.10;;;0.53;;
11006;SDS011;8186;57.652;11.968;2023-03-01T13:01:11;1.00;;;0.60;;
11006;SDS011;8186;57.652;11.968;2023-03-01T13:03:48;2.03;;;0.40;;
11006;SDS011;8186;57.652;11.968;2023-03-01T13:06:32;0.40;;;0.40;;
11006;SDS011;8186;57.652;11.968;2023-03-01T13:09:04;1.13;;;0.80;;
11006;SDS011;8186;57.652;11.968;2023-03-01T13:11:40;1.27;;;0.60;;
11006;SDS011;8186;57.652;11.968;2023-03-01T13:14:35;1.90;;;0.40;;
11006;SDS011;8186;57.652;11.968;2023-03-01T13:17:03;0.50;;;0.50;;
11006;SDS011;8186;57.652;11.968;2023-03-01T13:19:30;1.90;;;0.60;;
11006;SDS011;8186;57.652;11.968;2023-03-01T13:22:00;2.33;;;0.50;;
11006;SDS011;8186;57.652;11.968;2023-03-01T13:25:00;1.80;;;0.90;;
11006;SDS011;8186;57.652;11.968;2023-03-01T13:27:29;1.33;;;0.60;;
11006;SDS011;8186;57.652;11.968;2023-03-01T13:29:59;5.60;;;0.70;;
11006;SDS011;8186;57.652;11.968;2023-03-01T13:32:31;4.13;;;1.90;;
11006;SDS011;8186;57.652;11.968;2023-03-01T13:34:58;5.93;;;1.47;;
11006;SDS011;8186;57.652;11.968;2023-03-01T13:37:27;4.67;;;1.30;;
11006;SDS011;8186;57.652;11.968;2023-03-01T13:40:00;4.23;;;0.90;;
11006;SDS011;8186;57.652;11.968;2023-03-01T13:42:32;3.13;;;0.70;;
11006;SDS011;8186;57.652;11.968;2023-03-01T13:45:12;2.73;;;0.57;;
11006;SDS011;8186;57.652;11.968;2023-03-01T13:47:46;2.43;;;0.70;;
11006;SDS011;8186;57.652;11.968;2023-03-01T13:50:18;0.80;;;0.40;;
11006;SDS011;8186;57.652;11.968;2023-03-01T13:52:48;2.57;;;0.90;;
11006;SDS011;8186;57.652;11.968;2023-03-01T13:55:19;3.07;;;0.60;;
11006;SDS011;8186;57.652;11.968;2023-03-01T13:57:48;3.63;;;0.80;;
11006;SDS011;8186;57.652;11.968;2023-03-01T14:00:27;0.83;;;0.50;;
11006;SDS011;8186;57.652;11.968;2023-03-01T14:03:00;1.50;;;0.60;;
11006;SDS011;8186;57.652;11.968;2023-03-01T14:05:37;1.63;;;0.57;;
11006;SDS011;8186;57.652;11.968;2023-03-01T14:08:04;1.30;;;0.50;;
11006;SDS011;8186;57.652;11.968;2023-03-01T14:10:39;2.17;;;0.83;;
11006;SDS011;8186;57.652;11.968;2023-03-01T14:13:20;1.80;;;0.60;;
11006;SDS011;8186;57.652;11.968;2023-03-01T14:16:01;2.27;;;0.70;;
11006;SDS011;8186;57.652;11.968;2023-03-01T14:18:38;3.70;;;1.00;;
11006;SDS011;8186;57.652;11.968;2023-03-01T14:21:12;1.83;;;0.60;;
11006;SDS011;8186;57.652;11.968;2023-03-01T14:23:40;2.57;;;0.90;;
11006;SDS011;8186;57.652;11.968;2023-03-01T14:26:08;1.80;;;0.67;;
11006;SDS011;8186;57.652;11.968;2023-03-01T14:28:37;2.57;;;0.80;;
11006;SDS011;8186;57.652;11.968;2023-03-01T14:34:03;1.90;;;0.70;;
11006;SDS011;8186;57.652;11.968;2023-03-01T14:36:31;1.00;;;0.50;;
11006;SDS011;8186;57.652;11.968;2023-03-01T14:39:00;1.07;;;0.67;;
11006;SDS011;8186;57.652;11.968;2023-03-01T14:41:31;1.17;;;0.63;;
11006;SDS011;8186;57.652;11.968;2023-03-01T14:44:00;3.13;;;0.60;;
11006;SDS011;8186;57.652;11.968;2023-03-01T14:46:30;3.70;;;0.70;;
11006;SDS011;8186;57.652;11.968;2023-03-01T14:49:02;2.93;;;0.40;;
11006;SDS011;8186;57.652;11.968;2023-03-01T14:51:30;0.40;;;0.40;;
11006;SDS011;8186;57.652;11.968;2023-03-01T14:53:57;0.43;;;0.40;;
11006;SDS011;8186;57.652;11.968;2023-03-01T14:56:24;2.03;;;0.40;;
11006;SDS011;8186;57.652;11.968;2023-03-01T14:58:51;0.70;;;0.50;;
11006;SDS011;8186;57.652;11.968;2023-03-01T15:01:18;1.20;;;0.30;;
11006;SDS011;8186;57.652;11.968;2023-03-01T15:03:46;2.80;;;0.40;;
11006;SDS011;8186;57.652;11.968;2023-03-01T15:06:15;0.40;;;0.40;;
11006;SDS011;8186;57.652;11.968;2023-03-01T15:08:45;0.30;;;0.30;;
11006;SDS011;8186;57.652;11.968;2023-03-01T15:11:17;0.40;;;0.40;;
11006;SDS011;8186;57.652;11.968;2023-03-01T15:13:48;0.30;;;0.30;;
11006;SDS011;8186;57.652;11.968;2023-03-01T15:16:15;0.90;;;0.50;;